Time;durP1;ratioP1;P1;durP2;ratioP2;P2;SDS_P1;SDS_P2;PMS_P1;PMS_P2;Temp;Humidity;BMP_temperature;BMP_pressure;BME280_temperature;BME280_humidity;BME280_pressure;Samples;Min_cycle;Max_cycle;Signal;HPM_P1;HPM_P2
2022/08/03 00:00:07;;;;;;;3.33;2.45;;;;;;;22.37;nan;-24438.34;5029797;28;20353;-65
2022/08/03 00:02:32;;;;;;;4.40;2.83;;;;;;;22.29;nan;-24436.28;5029914;28;20183;-65
2022/08/03 00:04:58;;;;;;;4.60;2.80;;;;;;;21.92;nan;-24426.16;5029706;28;20179;-64
2022/08/03 00:07:23;;;;;;;3.60;2.58;;;;;;;22.23;nan;-24434.63;5031013;28;20584;-65
2022/08/03 00:09:49;;;;;;;2.65;2.28;;;;;;;22.20;nan;-24433.78;5029806;28;20183;-64
2022/08/03 00:12:15;;;;;;;4.57;2.78;;;;;;;22.23;nan;-24434.47;5029556;28;20168;-65
2022/08/03 00:14:40;;;;;;;3.13;2.83;;;;;;;22.49;nan;-24441.66;5029748;28;20215;-64
2022/08/03 00:17:05;;;;;;;3.45;2.55;;;;;;;22.58;nan;-24444.03;5029315;28;20187;-65
2022/08/03 00:19:31;;;;;;;4.50;2.60;;;;;;;22.28;nan;-24435.88;5029845;28;20175;-63
2022/08/03 00:21:56;;;;;;;4.35;2.72;;;;;;;22.26;nan;-24435.31;5030254;28;20626;-62
2022/08/03 00:24:22;;;;;;;4.65;2.60;;;;;;;21.95;nan;-24427.00;5028513;28;20666;-65
2022/08/03 00:26:47;;;;;;;2.97;2.42;;;;;;;22.23;nan;-24434.63;5028955;28;20677;-63
2022/08/03 00:29:12;;;;;;;4.78;2.50;;;;;;;22.48;nan;-24441.53;5029289;28;20553;-65
2022/08/03 00:31:38;;;;;;;3.92;2.70;;;;;;;22.05;nan;-24429.50;5030041;28;20182;-65
2022/08/03 00:34:04;;;;;;;5.75;3.10;;;;;;;22.26;nan;-24435.31;5029324;28;20299;-64
2022/08/03 00:36:29;;;;;;;4.07;2.80;;;;;;;22.11;nan;-24431.28;5028783;28;20200;-65
2022/08/03 00:38:55;;;;;;;5.30;2.90;;;;;;;21.82;nan;-24423.25;5030033;28;20822;-63
2022/08/03 00:41:21;;;;;;;3.35;2.33;;;;;;;21.92;nan;-24426.16;5028760;28;20179;-64
2022/08/03 00:43:46;;;;;;;4.28;2.40;;;;;;;21.36;nan;-24410.78;5028216;28;20202;-64
2022/08/03 00:46:12;;;;;;;5.28;2.95;;;;;;;21.52;nan;-24415.09;5029284;28;20258;-63
2022/08/03 00:48:38;;;;;;;3.63;2.55;;;;;;;21.22;nan;-24406.91;5026457;28;20174;-63
2022/08/03 00:51:04;;;;;;;3.75;2.85;;;;;;;21.37;nan;-24410.94;5029504;28;20630;-63
2022/08/03 00:53:30;;;;;;;3.72;2.40;;;;;;;21.58;nan;-24416.75;5028084;28;20238;-63
2022/08/03 00:55:56;;;;;;;4.22;3.03;;;;;;;21.38;nan;-24411.34;5030779;28;20218;-64
2022/08/03 00:58:23;;;;;;;3.53;2.60;;;;;;;21.13;nan;-24404.41;5030452;28;20258;-63
2022/08/03 01:00:48;;;;;;;3.15;2.47;;;;;;;21.63;nan;-24418.00;5029620;28;20179;-64
2022/08/03 01:03:14;;;;;;;3.40;2.63;;;;;;;21.64;nan;-24418.41;5028931;28;20206;-64
2022/08/03 01:05:56;;;;;;;2.78;2.47;;;;;;;21.53;nan;-24415.38;5029868;28;20175;-65
2022/08/03 01:08:24;;;;;;;4.95;2.53;;;;;;;21.42;nan;-24412.47;5031059;28;20167;-64
2022/08/03 01:11:11;;;;;;;3.92;2.42;;;;;;;21.37;nan;-24411.06;5033554;28;20635;-65
2022/08/03 01:13:51;;;;;;;3.40;2.58;;;;;;;21.26;nan;-24408.03;5032705;28;20313;-64
2022/08/03 01:16:22;;;;;;;3.08;2.47;;;;;;;20.90;nan;-24398.16;5032522;28;20194;-63
2022/08/03 01:19:28;;;;;;;3.03;2.38;;;;;;;21.22;nan;-24406.91;5033276;28;20574;-63
2022/08/03 01:22:32;;;;;;;3.28;2.45;;;;;;;21.36;nan;-24410.66;5028889;28;20186;-65
2022/08/03 01:25:15;;;;;;;3.70;2.60;;;;;;;21.26;nan;-24407.88;5029208;28;20245;-65
2022/08/03 01:27:56;;;;;;;3.03;2.53;;;;;;;21.40;nan;-24411.91;5031503;28;20191;-65
2022/08/03 01:30:28;;;;;;;4.28;3.05;;;;;;;21.29;nan;-24408.72;5032492;28;20183;-64
2022/08/03 01:32:59;;;;;;;4.60;2.53;;;;;;;21.23;nan;-24407.03;5029289;28;20171;-65
2022/08/03 01:35:45;;;;;;;3.70;2.75;;;;;;;21.36;nan;-24410.66;5032757;28;20265;-65
2022/08/03 01:38:17;;;;;;;3.83;2.72;;;;;;;21.30;nan;-24409.00;5030755;28;20179;-63
2022/08/03 01:40:45;;;;;;;4.78;2.83;;;;;;;20.99;nan;-24400.53;5031255;28;20167;-63
2022/08/03 01:43:15;;;;;;;2.88;2.45;;;;;;;20.91;nan;-24398.31;5032223;28;20206;-63
2022/08/03 01:45:42;;;;;;;7.05;3.33;;;;;;;20.93;nan;-24399.00;5030862;28;20171;-65
2022/08/03 01:48:11;;;;;;;4.57;2.78;;;;;;;20.89;nan;-24397.75;5032071;28;20191;-65
2022/08/03 01:50:38;;;;;;;3.42;2.70;;;;;;;21.15;nan;-24404.97;5033201;28;20615;-63
2022/08/03 01:53:06;;;;;;;4.78;3.20;;;;;;;21.24;nan;-24407.31;5031574;28;20278;-65
2022/08/03 01:55:36;;;;;;;4.32;3.28;;;;;;;21.24;nan;-24407.31;5031714;28;20175;-68
2022/08/03 01:58:03;;;;;;;2.97;2.60;;;;;;;21.23;nan;-24407.19;5031953;28;20178;-65
2022/08/03 02:00:30;;;;;;;3.70;2.78;;;;;;;20.88;nan;-24397.63;5031177;28;20534;-65
2022/08/03 02:02:57;;;;;;;3.88;2.65;;;;;;;20.90;nan;-24398.16;5032213;28;20544;-65
2022/08/03 02:05:23;;;;;;;3.78;2.47;;;;;;;20.95;nan;-24399.56;5032258;28;20179;-63
2022/08/03 02:07:50;;;;;;;3.15;2.40;;;;;;;21.32;nan;-24409.53;5032038;28;20549;-65
2022/08/03 02:10:20;;;;;;;3.35;2.42;;;;;;;21.43;nan;-24412.72;5031672;28;20584;-63
2022/08/03 02:12:48;;;;;;;4.25;2.85;;;;;;;21.37;nan;-24411.06;5031921;28;20230;-64
2022/08/03 02:15:18;;;;;;;4.22;2.65;;;;;;;21.26;nan;-24407.88;5031902;28;20199;-63
2022/08/03 02:17:46;;;;;;;3.55;3.10;;;;;;;21.27;nan;-24408.16;5032397;28;20176;-64
2022/08/03 02:20:13;;;;;;;4.38;3.08;;;;;;;20.87;nan;-24397.34;5031483;28;20218;-65
2022/08/03 02:22:40;;;;;;;3.85;2.92;;;;;;;20.97;nan;-24399.97;5031831;28;20721;-64
2022/08/03 02:25:11;;;;;;;3.00;2.47;;;;;;;21.22;nan;-24406.91;5031300;28;20681;-65
2022/08/03 02:27:41;;;;;;;2.92;2.50;;;;;;;21.21;nan;-24406.63;5031756;28;20175;-62
2022/08/03 02:30:08;;;;;;;3.95;2.70;;;;;;;21.11;nan;-24404.00;5030999;28;20650;-63
2022/08/03 02:32:36;;;;;;;4.25;3.10;;;;;;;21.10;nan;-24403.56;5031661;28;20177;-64
2022/08/03 02:35:04;;;;;;;2.58;2.33;;;;;;;21.21;nan;-24406.50;5031192;28;20671;-63
2022/08/03 02:37:35;;;;;;;3.35;2.55;;;;;;;21.35;nan;-24410.38;5030616;28;20186;-65
2022/08/03 02:40:02;;;;;;;4.03;2.60;;;;;;;21.31;nan;-24409.41;5032145;28;20266;-64
2022/08/03 02:42:30;;;;;;;3.60;2.40;;;;;;;21.08;nan;-24403.16;5031558;28;20225;-65
2022/08/03 02:44:59;;;;;;;2.90;2.17;;;;;;;21.40;nan;-24411.75;5027938;28;20218;-65
2022/08/03 02:47:27;;;;;;;3.40;2.53;;;;;;;21.09;nan;-24403.44;5031115;28;20179;-65
2022/08/03 02:49:57;;;;;;;3.50;2.53;;;;;;;21.17;nan;-24405.38;5031287;28;20191;-65
2022/08/03 02:52:26;;;;;;;4.05;2.70;;;;;;;20.82;nan;-24395.81;5030593;28;20245;-64
2022/08/03 02:54:56;;;;;;;3.45;2.20;;;;;;;21.39;nan;-24411.50;5029616;28;20171;-63
2022/08/03 02:57:23;;;;;;;5.57;2.22;;;;;;;21.45;nan;-24413.28;5030498;28;20179;-64
2022/08/03 02:59:50;;;;;;;4.00;2.47;;;;;;;21.34;nan;-24410.09;5030674;28;20171;-64
2022/08/03 03:02:18;;;;;;;3.13;2.33;;;;;;;21.31;nan;-24409.28;5030179;28;20245;-65
2022/08/03 03:04:44;;;;;;;2.70;2.20;;;;;;;21.33;nan;-24409.97;5030799;28;20223;-63
2022/08/03 03:07:12;;;;;;;3.58;2.30;;;;;;;21.06;nan;-24402.47;5030927;28;20175;-64
2022/08/03 03:09:38;;;;;;;3.22;2.20;;;;;;;21.31;nan;-24409.28;5028690;28;20183;-65
2022/08/03 03:12:07;;;;;;;2.58;2.08;;;;;;;21.47;nan;-24413.69;5030065;28;20178;-64
2022/08/03 03:14:33;;;;;;;3.30;2.47;;;;;;;21.05;nan;-24402.19;5029986;28;20226;-65
2022/08/03 03:17:00;;;;;;;3.10;2.47;;;;;;;21.30;nan;-24409.00;5030060;28;20179;-63
2022/08/03 03:19:26;;;;;;;3.63;2.13;;;;;;;21.00;nan;-24400.81;5030120;28;20202;-64
2022/08/03 03:21:54;;;;;;;2.85;2.25;;;;;;;21.27;nan;-24408.28;5030212;28;20198;-65
2022/08/03 03:24:20;;;;;;;3.80;2.40;;;;;;;21.28;nan;-24408.44;5030566;28;20199;-65
2022/08/03 03:26:47;;;;;;;3.38;2.38;;;;;;;21.28;nan;-24408.44;5029482;28;20657;-63
2022/08/03 03:29:14;;;;;;;2.95;2.13;;;;;;;21.19;nan;-24405.94;5029965;28;20171;-65
2022/08/03 03:31:40;;;;;;;4.05;2.63;;;;;;;21.01;nan;-24401.22;5029886;28;20564;-66
2022/08/03 03:34:06;;;;;;;2.58;2.13;;;;;;;20.72;nan;-24393.19;5029947;28;20260;-65
2022/08/03 03:36:31;;;;;;;3.40;2.58;;;;;;;21.06;nan;-24402.47;5031177;28;20175;-65
2022/08/03 03:38:57;;;;;;;2.85;2.10;;;;;;;20.99;nan;-24400.66;5030084;28;20233;-64
2022/08/03 03:41:23;;;;;;;3.83;2.35;;;;;;;20.91;nan;-24398.44;5030760;28;20262;-64
2022/08/03 03:43:49;;;;;;;7.07;2.50;;;;;;;20.84;nan;-24396.50;5030407;28;20566;-65
2022/08/03 03:46:15;;;;;;;4.60;2.97;;;;;;;20.74;nan;-24393.72;5030383;28;20178;-64
2022/08/03 03:48:40;;;;;;;7.30;3.10;;;;;;;20.86;nan;-24396.91;5030414;28;20191;-65
2022/08/03 03:51:06;;;;;;;5.43;3.30;;;;;;;21.18;nan;-24405.66;5030474;28;20270;-65
2022/08/03 03:53:32;;;;;;;4.05;2.88;;;;;;;21.15;nan;-24404.97;5030637;28;20537;-63
2022/08/03 03:55:57;;;;;;;3.05;2.50;;;;;;;20.97;nan;-24399.97;5030815;28;20203;-63
2022/08/03 03:58:22;;;;;;;3.17;2.50;;;;;;;21.45;nan;-24413.28;5030378;28;20207;-63
2022/08/03 04:00:49;;;;;;;4.65;2.78;;;;;;;21.46;nan;-24413.44;5030901;28;20665;-64
2022/08/03 04:03:14;;;;;;;3.35;2.47;;;;;;;21.26;nan;-24407.88;5030164;28;20202;-63
2022/08/03 04:11:19;;;;;;;4.95;2.70;;;;;;;21.51;nan;-24414.81;5027379;28;20544;-63
2022/08/03 04:13:44;;;;;;;3.13;2.22;;;;;;;21.78;nan;-24422.28;5029211;28;20659;-64
2022/08/03 04:16:13;;;;;;;3.03;2.20;;;;;;;21.85;nan;-24424.22;5030158;28;20265;-63
2022/08/03 04:18:42;;;;;;;2.88;2.58;;;;;;;21.53;nan;-24415.50;5027528;28;20175;-64
2022/08/03 04:21:11;;;;;;;4.03;2.63;;;;;;;21.95;nan;-24427.00;5029909;28;20231;-65
2022/08/03 04:23:41;;;;;;;2.88;2.15;;;;;;;21.87;nan;-24424.66;5030229;28;20198;-63
2022/08/03 04:26:10;;;;;;;4.10;2.45;;;;;;;22.23;nan;-24434.47;5030252;28;20187;-64
2022/08/03 04:28:43;;;;;;;3.25;2.35;;;;;;;22.06;nan;-24429.78;5031001;28;20194;-65
2022/08/03 04:31:09;;;;;;;2.95;2.33;;;;;;;22.33;nan;-24437.25;5029342;28;20179;-64
2022/08/03 04:33:37;;;;;;;3.08;2.25;;;;;;;22.27;nan;-24435.59;5030349;28;20696;-66
2022/08/03 04:36:05;;;;;;;4.40;2.30;;;;;;;22.29;nan;-24436.28;5029764;28;20214;-63
2022/08/03 04:38:35;;;;;;;3.20;2.35;;;;;;;22.03;nan;-24429.22;5030060;28;20214;-66
2022/08/03 04:41:02;;;;;;;2.90;2.30;;;;;;;21.89;nan;-24425.19;5029666;28;20182;-66
2022/08/03 04:43:31;;;;;;;3.60;2.40;;;;;;;22.17;nan;-24432.97;5032593;28;20195;-66
2022/08/03 04:45:58;;;;;;;2.90;2.20;;;;;;;22.19;nan;-24433.50;5028936;28;20191;-67
2022/08/03 04:48:23;;;;;;;2.45;2.05;;;;;;;22.11;nan;-24431.28;5040553;28;20540;-68
2022/08/03 04:50:49;;;;;;;3.05;2.08;;;;;;;22.23;nan;-24434.47;5033650;28;20183;-69
2022/08/03 04:53:16;;;;;;;9.23;2.40;;;;;;;22.50;nan;-24441.94;5033155;28;20321;-69
2022/08/03 04:55:42;;;;;;;7.15;3.50;;;;;;;22.48;nan;-24441.53;5033124;28;20171;-69
2022/08/03 04:58:08;;;;;;;4.57;2.58;;;;;;;22.80;nan;-24450.25;5031602;28;20240;-69
2022/08/03 05:00:34;;;;;;;4.43;3.17;;;;;;;22.86;nan;-24451.78;5033100;28;20179;-68
2022/08/03 05:02:59;;;;;;;3.83;2.20;;;;;;;23.01;nan;-24455.91;5033010;28;20190;-67
2022/08/03 05:05:25;;;;;;;2.83;2.25;;;;;;;23.12;nan;-24458.94;5032929;28;20179;-67
2022/08/03 05:07:50;;;;;;;3.05;2.50;;;;;;;23.01;nan;-24455.91;5033145;28;20678;-68
2022/08/03 05:10:16;;;;;;;4.35;2.67;;;;;;;23.21;nan;-24461.44;5032497;28;20634;-67
2022/08/03 05:12:43;;;;;;;3.38;2.40;;;;;;;;;;5033434;28;20189;-68
2022/08/03 05:15:09;;;;;;;3.00;2.47;;;;;;;23.48;nan;-24468.78;5033199;28;20183;-67
2022/08/03 05:17:35;;;;;;;3.08;2.42;;;;;;;23.67;nan;-24474.00;5034656;28;20183;-68
2022/08/03 05:20:02;;;;;;;2.53;2.25;;;;;;;23.90;nan;-24480.09;5034419;28;20651;-66
2022/08/03 05:22:28;;;;;;;3.05;2.20;;;;;;;24.22;nan;-24488.78;5034373;28;20259;-68
2022/08/03 05:24:53;;;;;;;3.63;2.58;;;;;;;24.59;nan;-24498.97;5032703;28;20697;-67
2022/08/03 05:27:19;;;;;;;3.92;2.40;;;;;;;24.55;nan;-24498.00;5033446;28;20190;-66
2022/08/03 05:29:45;;;;;;;3.53;2.50;;;;;;;24.71;nan;-24502.28;5033826;28;20174;-67
2022/08/03 05:32:10;;;;;;;2.30;2.10;;;;;;;24.63;nan;-24500.06;5031565;28;20187;-68
2022/08/03 05:34:36;;;;;;;3.28;2.22;;;;;;;24.35;nan;-24492.50;5032819;28;20704;-67
2022/08/03 05:37:01;;;;;;;2.47;2.28;;;;;;;24.44;nan;-24494.97;5033150;28;20179;-67
2022/08/03 05:39:27;;;;;;;3.53;2.42;;;;;;;24.87;nan;-24506.56;5032372;28;20209;-67
2022/08/03 05:41:52;;;;;;;4.45;2.28;;;;;;;24.99;nan;-24509.84;5033016;28;20669;-68
2022/08/03 05:44:18;;;;;;;2.50;2.20;;;;;;;24.77;nan;-24503.78;5030818;28;20280;-67
2022/08/03 05:46:43;;;;;;;5.20;2.97;;;;;;;25.28;nan;-24517.72;5032260;28;20191;-68
2022/08/03 05:49:08;;;;;;;5.65;3.10;;;;;;;25.21;nan;-24515.78;5031289;28;20175;-68
2022/08/03 05:51:34;;;;;;;6.20;2.75;;;;;;;24.95;nan;-24508.91;5032181;28;20179;-68
2022/08/03 05:53:59;;;;;;;5.60;2.50;;;;;;;25.28;nan;-24517.72;5031771;28;20182;-68
2022/08/03 05:56:25;;;;;;;5.35;2.67;;;;;;;25.07;nan;-24512.06;5031580;28;20657;-66
2022/08/03 05:58:51;;;;;;;2.97;2.40;;;;;;;25.27;nan;-24517.44;5031797;28;20681;-69
2022/08/03 06:01:17;;;;;;;2.97;2.42;;;;;;;25.26;nan;-24517.16;5033720;28;20262;-67
2022/08/03 06:03:44;;;;;;;3.17;2.40;;;;;;;25.27;nan;-24517.56;5032415;28;20337;-68
2022/08/03 06:06:10;;;;;;;3.33;2.22;;;;;;;25.20;nan;-24515.63;5031181;28;20254;-67
2022/08/03 06:08:36;;;;;;;3.22;2.53;;;;;;;25.34;nan;-24519.50;5033501;28;20274;-66
2022/08/03 06:11:02;;;;;;;3.85;2.60;;;;;;;25.50;nan;-24523.91;5032333;28;20609;-68
2022/08/03 06:13:28;;;;;;;3.40;2.47;;;;;;;25.49;nan;-24523.47;5032832;28;20227;-68
2022/08/03 06:15:53;;;;;;;2.80;2.20;;;;;;;25.58;nan;-24525.81;5033284;28;20229;-69
2022/08/03 06:18:19;;;;;;;3.80;2.75;;;;;;;25.81;nan;-24532.28;5032013;28;20175;-68
2022/08/03 06:20:44;;;;;;;5.43;2.60;;;;;;;26.03;nan;-24538.19;5032159;28;20233;-67
2022/08/03 06:23:10;;;;;;;3.63;3.20;;;;;;;26.02;nan;-24537.94;5031680;28;20281;-69
2022/08/03 06:25:35;;;;;;;4.38;2.38;;;;;;;26.79;nan;-24558.78;5032511;28;20657;-70
2022/08/03 06:28:01;;;;;;;2.80;2.40;;;;;;;26.85;nan;-24560.44;5033002;28;20635;-69
2022/08/03 06:30:26;;;;;;;3.20;2.35;;;;;;;27.01;nan;-24564.84;5033147;28;20171;-64
2022/08/03 06:32:52;;;;;;;3.45;2.15;;;;;;;26.73;nan;-24557.16;5032808;28;20220;-68
2022/08/03 06:35:17;;;;;;;5.03;2.88;;;;;;;27.06;nan;-24566.22;5031080;28;20270;-66
2022/08/03 06:37:47;;;;;;;2.90;2.55;;;;;;;27.01;nan;-24564.84;5032485;28;20602;-66
2022/08/03 06:40:15;;;;;;;3.63;2.38;;;;;;;27.20;nan;-24570.06;5032512;28;20179;-66
2022/08/03 06:42:41;;;;;;;3.85;2.88;;;;;;;26.88;nan;-24561.28;5032436;28;20556;-67
2022/08/03 06:45:10;;;;;;;4.85;2.55;;;;;;;27.00;nan;-24564.44;5032622;28;20187;-66
2022/08/03 06:47:38;;;;;;;4.55;2.90;;;;;;;27.16;nan;-24568.94;5032823;28;20171;-67
2022/08/03 06:50:08;;;;;;;4.28;2.45;;;;;;;26.94;nan;-24562.91;5032699;28;20159;-67
2022/08/03 06:52:33;;;;;;;6.90;2.47;;;;;;;27.21;nan;-24570.19;5030881;28;20186;-70
2022/08/03 06:54:59;;;;;;;3.70;2.67;;;;;;;27.36;nan;-24574.31;5030033;28;20179;-67
2022/08/03 06:57:24;;;;;;;3.65;2.30;;;;;;;26.97;nan;-24563.75;5031544;28;20222;-66
2022/08/03 06:59:50;;;;;;;5.70;2.50;;;;;;;26.92;nan;-24562.38;5029830;28;20770;-65
2022/08/03 07:02:17;;;;;;;4.43;2.58;;;;;;;26.99;nan;-24564.28;5029785;28;20635;-70
2022/08/03 07:04:43;;;;;;;3.88;2.33;;;;;;;26.78;nan;-24558.53;5031410;28;20194;-67
2022/08/03 07:07:08;;;;;;;4.13;2.80;;;;;;;26.87;nan;-24561.00;5030485;28;20182;-66
2022/08/03 07:09:33;;;;;;;3.50;2.60;;;;;;;27.05;nan;-24565.81;5030000;28;20187;-66
2022/08/03 07:12:01;;;;;;;4.97;2.95;;;;;;;27.22;nan;-24570.59;5029404;28;20188;-66
2022/08/03 07:14:26;;;;;;;7.78;2.63;;;;;;;27.68;nan;-24583.06;5028951;28;20649;-67
2022/08/03 07:16:52;;;;;;;3.53;2.60;;;;;;;27.99;nan;-24591.44;5029980;28;20262;-67
2022/08/03 07:19:17;;;;;;;3.55;2.50;;;;;;;27.95;nan;-24590.34;5028674;28;20701;-66
2022/08/03 07:21:44;;;;;;;3.17;2.53;;;;;;;28.05;nan;-24593.06;5031701;28;20174;-68
2022/08/03 07:24:09;;;;;;;3.50;2.50;;;;;;;28.27;nan;-24598.97;5031313;28;20203;-68
2022/08/03 07:26:35;;;;;;;3.97;2.88;;;;;;;28.48;nan;-24604.56;5031860;28;20700;-67
2022/08/03 07:29:00;;;;;;;3.58;2.30;;;;;;;28.78;nan;-24612.78;5032064;28;20179;-67
2022/08/03 07:31:26;;;;;;;4.47;2.67;;;;;;;28.68;nan;-24610.03;5032259;28;20171;-68
2022/08/03 07:33:52;;;;;;;3.25;2.85;;;;;;;28.87;nan;-24615.09;5031207;28;20677;-68
2022/08/03 07:36:17;;;;;;;2.95;2.35;;;;;;;28.91;nan;-24616.19;5032203;28;20250;-67
2022/08/03 07:38:42;;;;;;;3.28;2.60;;;;;;;29.08;nan;-24620.69;5031786;28;20258;-67
2022/08/03 07:41:08;;;;;;;3.13;2.55;;;;;;;29.53;nan;-24633.00;5029660;28;20175;-68
2022/08/03 07:43:33;;;;;;;4.10;2.67;;;;;;;29.31;nan;-24627.00;5031789;28;20207;-67
2022/08/03 07:45:59;;;;;;;3.35;2.47;;;;;;;29.57;nan;-24634.09;5031857;28;20198;-67
2022/08/03 07:48:24;;;;;;;2.85;2.53;;;;;;;29.45;nan;-24630.81;5031881;28;20190;-68
2022/08/03 07:50:51;;;;;;;3.28;2.55;;;;;;;29.79;nan;-24640.09;5032071;28;20171;-69
2022/08/03 07:53:17;;;;;;;4.32;2.85;;;;;;;30.06;nan;-24647.31;5030664;28;20200;-67
2022/08/03 07:55:42;;;;;;;3.97;2.75;;;;;;;29.50;nan;-24632.19;5031658;28;20545;-66
2022/08/03 07:58:16;;;;;;;4.00;2.92;;;;;;;29.80;nan;-24640.34;5030460;28;20269;-68
2022/08/03 08:00:43;;;;;;;4.32;3.10;;;;;;;29.83;nan;-24641.19;5031114;28;20170;-68
2022/08/03 08:03:09;;;;;;;3.72;2.83;;;;;;;29.74;nan;-24638.72;5029650;28;20178;-69
2022/08/03 08:05:35;;;;;;;3.92;3.17;;;;;;;30.01;nan;-24645.94;5030474;28;20683;-68
2022/08/03 08:08:01;;;;;;;4.13;2.83;;;;;;;28.73;nan;-24611.28;5029586;28;20182;-69
2022/08/03 08:10:27;;;;;;;3.78;2.70;;;;;;;29.56;nan;-24633.81;5030343;28;20175;-69
2022/08/03 08:12:53;;;;;;;4.13;2.85;;;;;;;29.97;nan;-24644.72;5031277;28;20219;-67
2022/08/03 08:15:19;;;;;;;5.15;2.97;;;;;;;29.59;nan;-24634.50;5030334;28;20183;-69
2022/08/03 08:17:50;;;;;;;3.65;3.00;;;;;;;29.72;nan;-24638.03;5029393;28;20197;-69
2022/08/03 08:20:21;;;;;;;3.40;2.70;;;;;;;29.88;nan;-24642.25;5030573;28;20187;-68
2022/08/03 08:22:48;;;;;;;3.85;3.03;;;;;;;29.11;nan;-24621.66;5030947;28;20270;-70
2022/08/03 08:25:14;;;;;;;4.55;3.13;;;;;;;28.98;nan;-24618.25;5030176;28;20229;-68
2022/08/03 08:27:44;;;;;;;4.97;3.20;;;;;;;28.64;nan;-24608.81;5031438;28;20167;-71
2022/08/03 08:30:12;;;;;;;3.63;2.80;;;;;;;29.09;nan;-24621.09;5031619;28;20741;-67
2022/08/03 08:32:37;;;;;;;4.25;2.90;;;;;;;29.82;nan;-24640.91;5031260;28;20681;-68
2022/08/03 08:35:04;;;;;;;4.22;3.13;;;;;;;30.18;nan;-24650.44;5030968;28;20305;-68
2022/08/03 08:37:30;;;;;;;5.07;3.13;;;;;;;30.85;nan;-24668.44;5031481;28;20174;-67
2022/08/03 08:39:55;;;;;;;4.68;3.30;;;;;;;30.08;nan;-24647.72;5031270;28;20175;-68
2022/08/03 08:42:21;;;;;;;3.85;2.83;;;;;;;30.10;nan;-24648.28;5029715;28;20207;-66
2022/08/03 08:44:47;;;;;;;4.25;2.95;;;;;;;30.16;nan;-24649.91;5030034;28;20293;-68
2022/08/03 08:47:14;;;;;;;4.40;3.05;;;;;;;30.60;nan;-24661.91;5029581;28;20182;-68
2022/08/03 08:49:40;;;;;;;3.83;2.85;;;;;;;31.07;nan;-24674.44;5028847;28;20179;-68
2022/08/03 08:52:09;;;;;;;4.43;3.25;;;;;;;30.60;nan;-24661.75;5030794;28;20211;-67
2022/08/03 08:54:39;;;;;;;4.70;3.40;;;;;;;31.04;nan;-24673.75;5030847;28;20175;-69
2022/08/03 08:57:06;;;;;;;5.18;3.45;;;;;;;31.28;nan;-24680.00;5031065;28;20163;-68
2022/08/03 08:59:35;;;;;;;5.30;3.30;;;;;;;31.28;nan;-24680.00;5031287;28;20179;-68
2022/08/03 09:02:01;;;;;;;4.97;3.22;;;;;;;31.11;nan;-24675.53;5030725;28;20175;-69
2022/08/03 09:04:29;;;;;;;4.22;2.92;;;;;;;29.94;nan;-24644.03;5030981;28;20198;-67
2022/08/03 09:06:55;;;;;;;5.05;3.20;;;;;;;29.85;nan;-24641.72;5030973;28;20167;-68
2022/08/03 09:09:20;;;;;;;4.65;3.20;;;;;;;29.73;nan;-24638.31;5030757;28;20645;-67
2022/08/03 09:11:48;;;;;;;4.30;3.35;;;;;;;29.74;nan;-24638.59;5031197;28;20551;-68
2022/08/03 09:14:13;;;;;;;5.85;3.28;;;;;;;30.01;nan;-24645.94;5030981;28;20749;-67
2022/08/03 09:16:55;;;;;;;3.90;3.17;;;;;;;30.44;nan;-24657.41;5030481;28;20203;-67
2022/08/03 09:19:21;;;;;;;4.63;3.55;;;;;;;30.60;nan;-24661.75;5031017;28;20170;-68
2022/08/03 09:22:06;;;;;;;5.65;3.05;;;;;;;31.52;nan;-24686.53;5031033;28;20251;-69
2022/08/03 09:24:32;;;;;;;5.22;3.55;;;;;;;32.27;nan;-24706.66;5030727;28;20624;-69
2022/08/03 09:26:57;;;;;;;3.67;3.03;;;;;;;31.70;nan;-24691.28;5030551;28;20206;-67
2022/08/03 09:29:23;;;;;;;4.13;3.13;;;;;;;31.99;nan;-24699.31;5031616;28;20254;-67
2022/08/03 09:32:00;;;;;;;4.38;3.30;;;;;;;32.38;nan;-24709.75;5034251;28;20171;-66
2022/08/03 09:34:27;;;;;;;4.28;2.70;;;;;;;32.53;nan;-24713.56;5034435;28;20201;-68
2022/08/03 09:36:53;;;;;;;4.20;3.22;;;;;;;33.00;nan;-24726.31;5034198;28;20171;-68
2022/08/03 09:39:21;;;;;;;4.53;3.33;;;;;;;31.91;nan;-24697.13;5034378;28;20221;-67
2022/08/03 09:41:47;;;;;;;3.28;2.70;;;;;;;;;;5033890;28;20173;-68
2022/08/03 09:44:14;;;;;;;3.97;2.90;;;;;;;33.15;nan;-24730.25;5034445;28;20190;-68
2022/08/03 09:46:55;;;;;;;4.68;3.15;;;;;;;33.01;nan;-24726.59;5034471;28;20240;-68
2022/08/03 09:49:21;;;;;;;4.55;2.75;;;;;;;32.85;nan;-24722.25;5034375;28;20155;-68
2022/08/03 09:51:47;;;;;;;5.63;3.40;;;;;;;32.28;nan;-24706.91;5033910;28;20626;-69
2022/08/03 09:54:28;;;;;;;4.90;3.03;;;;;;;32.27;nan;-24706.78;5033519;28;20214;-68
2022/08/03 09:56:54;;;;;;;3.75;3.10;;;;;;;31.87;nan;-24696.03;5033939;28;20170;-68
2022/08/03 09:59:37;;;;;;;4.15;3.08;;;;;;;32.38;nan;-24709.75;5034096;28;20236;-68
2022/08/03 10:02:02;;;;;;;4.25;3.03;;;;;;;32.87;nan;-24722.78;5034021;28;20179;-67
2022/08/03 10:04:28;;;;;;;5.72;3.30;;;;;;;33.16;nan;-24730.66;5033614;28;20218;-67
2022/08/03 10:07:08;;;;;;;4.07;3.08;;;;;;;33.09;nan;-24728.75;5033905;28;20174;-69
2022/08/03 10:09:34;;;;;;;4.60;3.10;;;;;;;32.22;nan;-24705.28;5034074;28;20163;-67
2022/08/03 10:12:11;;;;;;;3.35;2.97;;;;;;;31.88;nan;-24696.19;5033805;28;20177;-68
2022/08/03 10:14:38;;;;;;;3.75;3.05;;;;;;;32.26;nan;-24706.50;5034042;28;20263;-68
2022/08/03 10:17:04;;;;;;;3.97;2.90;;;;;;;31.92;nan;-24697.28;5033316;28;20179;-67
2022/08/03 10:19:29;;;;;;;3.20;2.60;;;;;;;31.69;nan;-24691.16;5033526;28;20170;-66
2022/08/03 10:22:00;;;;;;;4.57;3.22;;;;;;;30.54;nan;-24660.13;5033165;28;20171;-70
2022/08/03 10:24:28;;;;;;;5.22;3.50;;;;;;;30.37;nan;-24655.63;5031994;28;20292;-69
2022/08/03 10:27:06;;;;;;;6.43;3.08;;;;;;;30.43;nan;-24657.13;5033147;28;20528;-68
2022/08/03 10:29:38;;;;;;;3.88;3.10;;;;;;;30.58;nan;-24661.34;5032988;28;20253;-68
2022/08/03 10:32:13;;;;;;;5.90;3.30;;;;;;;30.53;nan;-24660.00;5032922;28;20167;-68
2022/08/03 10:34:41;;;;;;;4.28;3.22;;;;;;;30.57;nan;-24661.09;5032832;28;20172;-68
2022/08/03 10:37:10;;;;;;;4.60;3.20;;;;;;;30.10;nan;-24648.28;5033149;28;20171;-68
2022/08/03 10:39:36;;;;;;;4.95;3.65;;;;;;;30.48;nan;-24658.50;5032589;28;20312;-70
2022/08/03 10:42:04;;;;;;;4.60;3.20;;;;;;;30.00;nan;-24645.69;5032639;28;20685;-68
2022/08/03 10:44:37;;;;;;;4.60;3.15;;;;;;;29.84;nan;-24641.44;5032813;28;20332;-67
2022/08/03 10:47:04;;;;;;;5.47;4.00;;;;;;;30.63;nan;-24662.59;5032496;28;20183;-69
2022/08/03 10:49:30;;;;;;;5.80;4.30;;;;;;;30.79;nan;-24666.94;5032511;28;20183;-68
2022/08/03 10:51:56;;;;;;;4.60;3.47;;;;;;;30.29;nan;-24653.59;5032289;28;20183;-68
2022/08/03 10:57:49;;;;;;;7.57;5.25;;;;;;;30.23;nan;-24651.81;5033147;28;20219;-68
2022/08/03 11:00:19;;;;;;;5.85;3.75;;;;;;;30.10;nan;-24648.41;5032843;28;20221;-68
2022/08/03 11:03:09;;;;;;;5.05;3.47;;;;;;;30.40;nan;-24656.44;5032820;28;20170;-68
2022/08/03 11:05:41;;;;;;;5.05;2.90;;;;;;;30.58;nan;-24661.34;5024639;28;20197;-68
2022/08/03 11:08:19;;;;;;;4.20;3.03;;;;;;;31.15;nan;-24676.59;5033006;28;20202;-68
2022/08/03 11:10:45;;;;;;;4.22;3.40;;;;;;;30.49;nan;-24658.91;5032651;28;20163;-68
2022/08/03 11:13:18;;;;;;;4.68;3.17;;;;;;;30.52;nan;-24659.72;5032624;28;20251;-69
2022/08/03 11:15:46;;;;;;;6.22;4.13;;;;;;;31.37;nan;-24682.59;5032690;28;20155;-67
2022/08/03 11:18:13;;;;;;;8.32;5.43;;;;;;;31.90;nan;-24696.72;5032711;28;20166;-68
2022/08/03 11:20:59;;;;;;;5.90;3.92;;;;;;;32.32;nan;-24708.00;5031105;28;20170;-68
2022/08/03 11:23:46;;;;;;;10.40;5.55;;;;;;;32.97;nan;-24725.50;5032514;28;20198;-69
2022/08/03 11:26:16;;;;;;;7.97;5.10;;;;;;;32.35;nan;-24708.94;5047714;28;20626;-69
2022/08/03 11:28:44;;;;;;;6.78;3.67;;;;;;;31.92;nan;-24697.28;5032310;28;20650;-68
2022/08/03 11:31:21;;;;;;;4.25;3.08;;;;;;;31.34;nan;-24681.78;5032419;28;20174;-69
2022/08/03 11:34:10;;;;;;;3.72;2.95;;;;;;;31.84;nan;-24695.22;5032279;28;20174;-69
2022/08/03 11:37:13;;;;;;;4.70;3.10;;;;;;;32.13;nan;-24702.97;5032456;28;20503;-70
2022/08/03 11:39:44;;;;;;;7.20;3.25;;;;;;;32.91;nan;-24723.88;5032186;28;20167;-69
2022/08/03 11:42:22;;;;;;;5.38;3.38;;;;;;;33.25;nan;-24733.09;5032255;28;20162;-69
2022/08/03 11:44:49;;;;;;;5.43;3.50;;;;;;;33.81;nan;-24747.97;5031947;28;20606;-70
2022/08/03 11:47:16;;;;;;;4.05;3.20;;;;;;;34.32;nan;-24761.63;5032170;28;20224;-67
2022/08/03 11:49:46;;;;;;;4.15;3.13;;;;;;;34.42;nan;-24764.34;5032126;28;20257;-69
2022/08/03 11:52:12;;;;;;;4.25;3.20;;;;;;;34.68;nan;-24771.25;5031788;28;20637;-68
2022/08/03 11:54:38;;;;;;;7.10;3.40;;;;;;;34.60;nan;-24769.22;5031842;28;20197;-68
2022/08/03 11:57:04;;;;;;;3.28;2.50;;;;;;;34.43;nan;-24764.47;5031442;28;20542;-68